sensor_id;sensor_type;location;lat;lon;timestamp;pressure;altitude;pressure_sealevel;temperature;humidity
8575;BME280;4325;42.520;27.448;2023-12-04T00:02:00;101627.19;;;7.39;100.00
8575;BME280;4325;42.520;27.448;2023-12-04T00:04:27;101625.50;;;7.38;100.00
8575;BME280;4325;42.520;27.448;2023-12-04T00:06:54;101628.06;;;7.33;100.00
8575;BME280;4325;42.520;27.448;2023-12-04T00:09:21;101640.41;;;7.36;100.00
8575;BME280;4325;42.520;27.448;2023-12-04T00:11:51;101643.97;;;7.36;100.00
8575;BME280;4325;42.520;27.448;2023-12-04T00:14:18;101641.50;;;7.35;100.00
8575;BME280;4325;42.520;27.448;2023-12-04T00:16:45;101656.56;;;7.37;100.00
8575;BME280;4325;42.520;27.448;2023-12-04T00:19:12;101662.34;;;7.41;100.00
8575;BME280;4325;42.520;27.448;2023-12-04T00:21:39;101647.28;;;7.38;100.00
8575;BME280;4325;42.520;27.448;2023-12-04T00:24:06;101637.16;;;7.45;100.00
8575;BME280;4325;42.520;27.448;2023-12-04T00:26:33;101637.63;;;7.42;100.00
8575;BME280;4325;42.520;27.448;2023-12-04T00:29:02;101641.09;;;7.49;100.00
8575;BME280;4325;42.520;27.448;2023-12-04T00:31:29;101647.75;;;7.53;100.00
8575;BME280;4325;42.520;27.448;2023-12-04T00:33:56;101655.47;;;7.56;100.00
8575;BME280;4325;42.520;27.448;2023-12-04T00:36:24;101656.97;;;7.52;100.00
8575;BME280;4325;42.520;27.448;2023-12-04T00:38:51;101649.13;;;7.44;100.00
8575;BME280;4325;42.520;27.448;2023-12-04T00:41:18;101646.69;;;7.36;100.00
8575;BME280;4325;42.520;27.448;2023-12-04T00:43:45;101652.44;;;7.28;100.00
8575;BME280;4325;42.520;27.448;2023-12-04T00:46:13;101654.13;;;7.29;100.00
8575;BME280;4325;42.520;27.448;2023-12-04T00:48:40;101653.06;;;7.30;100.00
8575;BME280;4325;42.520;27.448;2023-12-04T00:51:07;101661.25;;;7.30;100.00
8575;BME280;4325;42.520;27.448;2023-12-04T00:53:34;101677.88;;;7.22;100.00
8575;BME280;4325;42.520;27.448;2023-12-04T00:56:01;101673.03;;;7.24;100.00
8575;BME280;4325;42.520;27.448;2023-12-04T00:58:28;101667.16;;;7.27;100.00
8575;BME280;4325;42.520;27.448;2023-12-04T01:00:55;101653.97;;;7.24;100.00
8575;BME280;4325;42.520;27.448;2023-12-04T01:03:24;101653.72;;;7.25;100.00
8575;BME280;4325;42.520;27.448;2023-12-04T01:05:52;101661.25;;;7.30;100.00
8575;BME280;4325;42.520;27.448;2023-12-04T01:08:19;101665.47;;;7.26;100.00
8575;BME280;4325;42.520;27.448;2023-12-04T01:10:46;101675.53;;;7.25;100.00
8575;BME280;4325;42.520;27.448;2023-12-04T01:13:13;101678.94;;;7.21;100.00
8575;BME280;4325;42.520;27.448;2023-12-04T01:15:41;101687.34;;;7.19;100.00
8575;BME280;4325;42.520;27.448;2023-12-04T01:18:08;101679.00;;;7.14;100.00
8575;BME280;4325;42.520;27.448;2023-12-04T01:20:36;101680.28;;;7.12;100.00
8575;BME280;4325;42.520;27.448;2023-12-04T01:23:03;101686.19;;;7.09;100.00
8575;BME280;4325;42.520;27.448;2023-12-04T01:25:30;101671.13;;;7.06;100.00
8575;BME280;4325;42.520;27.448;2023-12-04T01:27:57;101688.38;;;7.00;100.00
8575;BME280;4325;42.520;27.448;2023-12-04T01:30:24;101686.03;;;7.04;100.00
8575;BME280;4325;42.520;27.448;2023-12-04T01:32:51;101689.22;;;7.01;100.00
8575;BME280;4325;42.520;27.448;2023-12-04T01:35:18;101691.31;;;6.99;100.00
8575;BME280;4325;42.520;27.448;2023-12-04T01:37:47;101701.59;;;6.97;100.00
8575;BME280;4325;42.520;27.448;2023-12-04T01:40:14;101694.78;;;6.88;100.00
8575;BME280;4325;42.520;27.448;2023-12-04T01:42:42;101695.66;;;6.82;100.00
8575;BME280;4325;42.520;27.448;2023-12-04T01:45:09;101687.19;;;6.72;100.00
8575;BME280;4325;42.520;27.448;2023-12-04T01:47:36;101689.59;;;6.61;100.00
8575;BME280;4325;42.520;27.448;2023-12-04T01:50:03;101684.25;;;6.48;100.00
8575;BME280;4325;42.520;27.448;2023-12-04T01:52:31;101693.44;;;6.47;100.00
8575;BME280;4325;42.520;27.448;2023-12-04T01:54:59;101710.59;;;6.54;100.00
8575;BME280;4325;42.520;27.448;2023-12-04T01:57:26;101722.25;;;6.61;100.00
8575;BME280;4325;42.520;27.448;2023-12-04T01:59:54;101742.25;;;6.74;100.00
8575;BME280;4325;42.520;27.448;2023-12-04T02:02:21;101737.16;;;6.77;100.00
8575;BME280;4325;42.520;27.448;2023-12-04T02:04:48;101729.59;;;6.79;100.00
8575;BME280;4325;42.520;27.448;2023-12-04T02:07:15;101725.59;;;6.82;100.00
8575;BME280;4325;42.520;27.448;2023-12-04T02:09:42;101717.91;;;6.79;100.00
8575;BME280;4325;42.520;27.448;2023-12-04T02:12:10;101729.16;;;6.82;100.00
8575;BME280;4325;42.520;27.448;2023-12-04T02:14:37;101746.34;;;6.83;100.00
8575;BME280;4325;42.520;27.448;2023-12-04T02:17:05;101750.28;;;6.87;100.00
8575;BME280;4325;42.520;27.448;2023-12-04T02:19:34;101760.72;;;6.90;100.00
8575;BME280;4325;42.520;27.448;2023-12-04T02:22:02;101751.78;;;6.83;100.00
8575;BME280;4325;42.520;27.448;2023-12-04T02:24:30;101741.94;;;6.82;100.00
8575;BME280;4325;42.520;27.448;2023-12-04T02:27:10;101756.00;;;6.79;100.00
8575;BME280;4325;42.520;27.448;2023-12-04T02:29:42;101757.72;;;6.73;100.00
8575;BME280;4325;42.520;27.448;2023-12-04T02:32:15;101759.00;;;6.71;100.00
8575;BME280;4325;42.520;27.448;2023-12-04T02:34:44;101763.59;;;6.70;100.00
8575;BME280;4325;42.520;27.448;2023-12-04T02:37:13;101770.72;;;6.71;100.00
8575;BME280;4325;42.520;27.448;2023-12-04T02:39:42;101779.94;;;6.70;100.00
8575;BME280;4325;42.520;27.448;2023-12-04T02:42:09;101776.84;;;6.67;100.00
8575;BME280;4325;42.520;27.448;2023-12-04T02:44:39;101770.16;;;6.62;100.00
8575;BME280;4325;42.520;27.448;2023-12-04T02:47:06;101774.38;;;6.58;100.00
8575;BME280;4325;42.520;27.448;2023-12-04T02:49:33;101780.06;;;6.57;100.00
8575;BME280;4325;42.520;27.448;2023-12-04T02:52:00;101789.91;;;6.51;100.00
8575;BME280;4325;42.520;27.448;2023-12-04T02:54:28;101796.56;;;6.55;100.00
8575;BME280;4325;42.520;27.448;2023-12-04T02:56:56;101793.47;;;6.52;100.00
8575;BME280;4325;42.520;27.448;2023-12-04T02:59:23;101809.75;;;6.58;100.00
8575;BME280;4325;42.520;27.448;2023-12-04T03:01:50;101810.59;;;6.59;100.00
8575;BME280;4325;42.520;27.448;2023-12-04T03:04:19;101824.00;;;6.54;100.00
8575;BME280;4325;42.520;27.448;2023-12-04T03:06:46;101827.81;;;6.46;100.00
8575;BME280;4325;42.520;27.448;2023-12-04T03:09:13;101838.28;;;6.49;100.00
8575;BME280;4325;42.520;27.448;2023-12-04T03:11:40;101834.72;;;6.49;100.00
8575;BME280;4325;42.520;27.448;2023-12-04T03:14:08;101839.09;;;6.50;100.00
8575;BME280;4325;42.520;27.448;2023-12-04T03:16:36;101851.25;;;6.47;100.00
8575;BME280;4325;42.520;27.448;2023-12-04T03:19:03;101853.53;;;6.50;100.00
8575;BME280;4325;42.520;27.448;2023-12-04T03:21:30;101858.00;;;6.38;100.00
8575;BME280;4325;42.520;27.448;2023-12-04T03:23:57;101876.84;;;6.40;100.00
8575;BME280;4325;42.520;27.448;2023-12-04T03:26:24;101883.53;;;6.37;100.00
8575;BME280;4325;42.520;27.448;2023-12-04T03:28:51;101896.13;;;6.25;100.00
8575;BME280;4325;42.520;27.448;2023-12-04T03:31:19;101904.91;;;6.21;100.00
8575;BME280;4325;42.520;27.448;2023-12-04T03:33:46;101893.00;;;6.22;100.00
8575;BME280;4325;42.520;27.448;2023-12-04T03:36:13;101888.41;;;6.22;100.00
8575;BME280;4325;42.520;27.448;2023-12-04T03:38:40;101877.72;;;6.21;100.00
8575;BME280;4325;42.520;27.448;2023-12-04T03:41:13;101867.09;;;6.06;100.00
8575;BME280;4325;42.520;27.448;2023-12-04T03:43:40;101887.81;;;6.07;100.00
8575;BME280;4325;42.520;27.448;2023-12-04T03:46:07;101873.84;;;5.97;100.00
8575;BME280;4325;42.520;27.448;2023-12-04T03:48:36;101882.03;;;5.90;100.00
8575;BME280;4325;42.520;27.448;2023-12-04T03:51:05;101876.59;;;5.84;100.00
8575;BME280;4325;42.520;27.448;2023-12-04T03:53:32;101881.81;;;5.66;100.00
8575;BME280;4325;42.520;27.448;2023-12-04T03:55:59;101885.59;;;5.65;100.00
8575;BME280;4325;42.520;27.448;2023-12-04T03:58:26;101886.66;;;5.64;100.00
8575;BME280;4325;42.520;27.448;2023-12-04T04:00:53;101896.88;;;5.62;100.00
8575;BME280;4325;42.520;27.448;2023-12-04T04:03:20;101901.25;;;5.63;100.00
8575;BME280;4325;42.520;27.448;2023-12-04T04:05:48;101917.81;;;5.55;100.00
8575;BME280;4325;42.520;27.448;2023-12-04T04:08:15;101922.59;;;5.53;100.00
8575;BME280;4325;42.520;27.448;2023-12-04T04:10:42;101928.88;;;5.47;100.00
8575;BME280;4325;42.520;27.448;2023-12-04T04:13:11;101936.38;;;5.45;100.00
8575;BME280;4325;42.520;27.448;2023-12-04T04:15:38;101933.88;;;5.50;100.00
8575;BME280;4325;42.520;27.448;2023-12-04T04:18:05;101950.16;;;5.43;100.00
8575;BME280;4325;42.520;27.448;2023-12-04T04:20:32;101958.09;;;5.38;100.00
8575;BME280;4325;42.520;27.448;2023-12-04T04:23:00;101962.72;;;5.38;100.00
8575;BME280;4325;42.520;27.448;2023-12-04T04:25:27;101957.25;;;5.31;100.00
8575;BME280;4325;42.520;27.448;2023-12-04T04:27:54;101954.31;;;5.26;100.00
8575;BME280;4325;42.520;27.448;2023-12-04T04:30:21;101954.31;;;5.19;100.00
8575;BME280;4325;42.520;27.448;2023-12-04T04:32:48;101949.72;;;5.26;100.00
8575;BME280;4325;42.520;27.448;2023-12-04T04:35:15;101956.41;;;5.30;100.00
8575;BME280;4325;42.520;27.448;2023-12-04T04:37:42;101956.63;;;5.29;100.00
8575;BME280;4325;42.520;27.448;2023-12-04T04:40:11;101962.69;;;5.24;100.00
8575;BME280;4325;42.520;27.448;2023-12-04T04:42:38;101968.13;;;5.24;100.00
8575;BME280;4325;42.520;27.448;2023-12-04T04:45:06;101965.84;;;5.28;100.00
8575;BME280;4325;42.520;27.448;2023-12-04T04:47:33;101962.69;;;5.31;100.00
8575;BME280;4325;42.520;27.448;2023-12-04T04:50:00;101956.84;;;5.27;100.00
8575;BME280;4325;42.520;27.448;2023-12-04T04:52:27;101958.06;;;5.18;100.00
8575;BME280;4325;42.520;27.448;2023-12-04T04:54:54;101962.88;;;5.16;100.00
8575;BME280;4325;42.520;27.448;2023-12-04T04:57:23;101962.03;;;5.09;100.00
8575;BME280;4325;42.520;27.448;2023-12-04T04:59:50;101951.78;;;5.11;100.00
8575;BME280;4325;42.520;27.448;2023-12-04T05:02:17;101951.38;;;5.14;100.00
8575;BME280;4325;42.520;27.448;2023-12-04T05:04:44;101966.44;;;5.10;100.00
8575;BME280;4325;42.520;27.448;2023-12-04T05:07:11;101968.94;;;5.05;100.00
8575;BME280;4325;42.520;27.448;2023-12-04T05:09:38;101960.16;;;5.03;100.00
8575;BME280;4325;42.520;27.448;2023-12-04T05:12:06;101978.31;;;4.96;100.00
8575;BME280;4325;42.520;27.448;2023-12-04T05:14:34;101977.66;;;4.94;100.00
8575;BME280;4325;42.520;27.448;2023-12-04T05:17:01;101972.22;;;4.94;100.00
8575;BME280;4325;42.520;27.448;2023-12-04T05:19:28;101966.78;;;4.94;100.00
8575;BME280;4325;42.520;27.448;2023-12-04T05:21:55;101967.22;;;4.91;100.00
8575;BME280;4325;42.520;27.448;2023-12-04T05:24:22;101959.25;;;4.83;100.00
8575;BME280;4325;42.520;27.448;2023-12-04T05:26:49;101960.06;;;4.77;100.00
8575;BME280;4325;42.520;27.448;2023-12-04T05:29:16;101962.16;;;4.75;100.00
8575;BME280;4325;42.520;27.448;2023-12-04T05:31:44;101968.41;;;4.69;100.00
8575;BME280;4325;42.520;27.448;2023-12-04T05:34:11;101961.69;;;4.65;100.00
8575;BME280;4325;42.520;27.448;2023-12-04T05:36:38;101955.44;;;4.64;100.00
8575;BME280;4325;42.520;27.448;2023-12-04T05:39:05;101957.94;;;4.66;100.00
8575;BME280;4325;42.520;27.448;2023-12-04T05:41:32;101969.44;;;4.68;100.00
8575;BME280;4325;42.520;27.448;2023-12-04T05:43:59;101974.22;;;4.66;100.00
8575;BME280;4325;42.520;27.448;2023-12-04T05:46:26;101977.56;;;4.68;100.00
8575;BME280;4325;42.520;27.448;2023-12-04T05:48:55;101975.28;;;4.72;100.00
8575;BME280;4325;42.520;27.448;2023-12-04T05:51:22;101980.50;;;4.73;100.00
8575;BME280;4325;42.520;27.448;2023-12-04T05:53:49;101987.00;;;4.79;100.00
8575;BME280;4325;42.520;27.448;2023-12-04T05:56:16;101992.22;;;4.80;100.00
8575;BME280;4325;42.520;27.448;2023-12-04T05:58:43;102000.81;;;4.84;100.00
8575;BME280;4325;42.520;27.448;2023-12-04T06:01:10;102002.91;;;4.88;100.00
8575;BME280;4325;42.520;27.448;2023-12-04T06:03:37;102004.78;;;4.94;100.00
8575;BME280;4325;42.520;27.448;2023-12-04T06:06:06;102003.97;;;5.00;100.00
8575;BME280;4325;42.520;27.448;2023-12-04T06:08:33;102011.28;;;5.06;100.00
8575;BME280;4325;42.520;27.448;2023-12-04T06:11:00;102019.03;;;5.09;100.00
8575;BME280;4325;42.520;27.448;2023-12-04T06:13:27;102015.06;;;5.12;100.00
8575;BME280;4325;42.520;27.448;2023-12-04T06:15:54;102023.03;;;5.13;100.00
8575;BME280;4325;42.520;27.448;2023-12-04T06:18:21;102027.41;;;5.14;100.00
8575;BME280;4325;42.520;27.448;2023-12-04T06:20:48;102028.03;;;5.16;100.00
8575;BME280;4325;42.520;27.448;2023-12-04T06:23:17;102037.47;;;5.20;100.00
8575;BME280;4325;42.520;27.448;2023-12-04T06:25:45;102035.78;;;5.19;100.00
8575;BME280;4325;42.520;27.448;2023-12-04T06:28:12;102041.66;;;5.23;100.00
8575;BME280;4325;42.520;27.448;2023-12-04T06:30:40;102039.75;;;5.23;100.00
8575;BME280;4325;42.520;27.448;2023-12-04T06:33:08;102040.13;;;5.14;100.00
8575;BME280;4325;42.520;27.448;2023-12-04T06:35:35;102038.91;;;5.16;100.00
8575;BME280;4325;42.520;27.448;2023-12-04T06:38:06;102041.59;;;5.16;100.00
8575;BME280;4325;42.520;27.448;2023-12-04T06:40:36;102038.66;;;5.11;100.00
8575;BME280;4325;42.520;27.448;2023-12-04T06:43:03;102035.56;;;5.14;100.00
8575;BME280;4325;42.520;27.448;2023-12-04T06:45:31;102038.66;;;5.11;100.00
8575;BME280;4325;42.520;27.448;2023-12-04T06:47:59;102044.13;;;5.18;100.00
8575;BME280;4325;42.520;27.448;2023-12-04T06:50:27;102042.22;;;5.18;100.00
8575;BME280;4325;42.520;27.448;2023-12-04T06:52:54;102047.25;;;5.21;100.00
8575;BME280;4325;42.520;27.448;2023-12-04T06:55:21;102042.47;;;5.23;100.00
8575;BME280;4325;42.520;27.448;2023-12-04T06:57:49;102034.13;;;5.25;100.00
8575;BME280;4325;42.520;27.448;2023-12-04T07:00:16;102041.22;;;5.26;100.00
8575;BME280;4325;42.520;27.448;2023-12-04T07:02:43;102044.59;;;5.28;100.00
8575;BME280;4325;42.520;27.448;2023-12-04T07:05:10;102045.44;;;5.35;100.00
8575;BME280;4325;42.520;27.448;2023-12-04T07:07:37;102038.75;;;5.44;100.00
8575;BME280;4325;42.520;27.448;2023-12-04T07:10:05;102042.53;;;5.50;100.00
8575;BME280;4325;42.520;27.448;2023-12-04T07:12:32;102048.81;;;5.57;100.00
8575;BME280;4325;42.520;27.448;2023-12-04T07:15:01;102049.25;;;5.67;100.00
8575;BME280;4325;42.520;27.448;2023-12-04T07:17:28;102057.19;;;5.75;100.00
8575;BME280;4325;42.520;27.448;2023-12-04T07:19:55;102064.53;;;5.81;100.00
8575;BME280;4325;42.520;27.448;2023-12-04T07:22:22;102073.13;;;5.97;100.00
8575;BME280;4325;42.520;27.448;2023-12-04T07:24:49;102079.84;;;6.08;100.00
8575;BME280;4325;42.520;27.448;2023-12-04T07:27:16;102074.78;;;6.12;100.00
8575;BME280;4325;42.520;27.448;2023-12-04T07:29:43;102078.56;;;6.17;100.00
8575;BME280;4325;42.520;27.448;2023-12-04T07:32:12;102081.06;;;6.25;100.00
8575;BME280;4325;42.520;27.448;2023-12-04T07:34:39;102082.31;;;6.36;100.00
8575;BME280;4325;42.520;27.448;2023-12-04T07:37:06;102086.91;;;6.42;100.00
8575;BME280;4325;42.520;27.448;2023-12-04T07:39:34;102084.78;;;6.50;100.00
8575;BME280;4325;42.520;27.448;2023-12-04T07:42:01;102093.56;;;6.52;100.00
8575;BME280;4325;42.520;27.448;2023-12-04T07:44:28;102094.41;;;6.59;100.00
8575;BME280;4325;42.520;27.448;2023-12-04T07:46:55;102091.06;;;6.57;100.00
8575;BME280;4325;42.520;27.448;2023-12-04T07:49:24;102088.34;;;6.57;100.00
8575;BME280;4325;42.520;27.448;2023-12-04T07:51:51;102087.72;;;6.55;100.00
8575;BME280;4325;42.520;27.448;2023-12-04T07:54:18;102079.75;;;6.60;100.00
8575;BME280;4325;42.520;27.448;2023-12-04T07:56:45;102077.00;;;6.67;100.00
8575;BME280;4325;42.520;27.448;2023-12-04T07:59:12;102087.03;;;6.80;100.00
8575;BME280;4325;42.520;27.448;2023-12-04T08:01:39;102094.31;;;6.92;100.00
8575;BME280;4325;42.520;27.448;2023-12-04T08:04:06;102082.34;;;7.00;100.00
8575;BME280;4325;42.520;27.448;2023-12-04T08:06:34;102084.88;;;6.95;100.00
8575;BME280;4325;42.520;27.448;2023-12-04T08:09:02;102095.13;;;6.99;100.00
8575;BME280;4325;42.520;27.448;2023-12-04T08:11:31;102093.03;;;7.08;100.00
8575;BME280;4325;42.520;27.448;2023-12-04T08:13:58;102084.19;;;7.12;100.00
8575;BME280;4325;42.520;27.448;2023-12-04T08:16:25;102083.34;;;7.12;100.00
8575;BME280;4325;42.520;27.448;2023-12-04T08:18:54;102081.84;;;7.16;100.00
8575;BME280;4325;42.520;27.448;2023-12-04T08:21:21;102070.31;;;7.27;100.00
8575;BME280;4325;42.520;27.448;2023-12-04T08:23:50;102076.88;;;7.51;100.00
8575;BME280;4325;42.520;27.448;2023-12-04T08:26:21;102097.56;;;7.58;100.00
8575;BME280;4325;42.520;27.448;2023-12-04T08:28:48;102088.38;;;7.59;100.00
8575;BME280;4325;42.520;27.448;2023-12-04T08:31:15;102092.56;;;7.55;100.00
8575;BME280;4325;42.520;27.448;2023-12-04T08:33:42;102094.06;;;7.51;100.00
8575;BME280;4325;42.520;27.448;2023-12-04T08:36:11;102093.66;;;7.48;100.00
8575;BME280;4325;42.520;27.448;2023-12-04T08:38:38;102097.44;;;7.47;100.00
8575;BME280;4325;42.520;27.448;2023-12-04T08:41:07;102094.53;;;7.42;100.00
8575;BME280;4325;42.520;27.448;2023-12-04T08:43:34;102095.56;;;7.41;100.00
8575;BME280;4325;42.520;27.448;2023-12-04T08:46:01;102097.03;;;7.43;100.00
8575;BME280;4325;42.520;27.448;2023-12-04T08:48:29;102097.81;;;7.50;100.00
8575;BME280;4325;42.520;27.448;2023-12-04T08:50:56;102095.72;;;7.52;100.00
8575;BME280;4325;42.520;27.448;2023-12-04T08:53:24;102093.44;;;7.49;100.00
8575;BME280;4325;42.520;27.448;2023-12-04T08:55:51;102083.03;;;7.40;100.00
8575;BME280;4325;42.520;27.448;2023-12-04T08:58:19;102081.84;;;7.60;100.00
8575;BME280;4325;42.520;27.448;2023-12-04T09:00:47;102085.34;;;7.67;100.00
8575;BME280;4325;42.520;27.448;2023-12-04T09:03:14;102072.97;;;7.71;100.00
8575;BME280;4325;42.520;27.448;2023-12-04T09:05:42;102076.31;;;7.73;100.00
8575;BME280;4325;42.520;27.448;2023-12-04T09:08:10;102075.84;;;7.76;100.00
8575;BME280;4325;42.520;27.448;2023-12-04T09:10:37;102073.28;;;7.81;100.00
8575;BME280;4325;42.520;27.448;2023-12-04T09:13:04;102070.31;;;7.89;100.00
8575;BME280;4325;42.520;27.448;2023-12-04T09:15:33;102064.28;;;8.06;100.00
8575;BME280;4325;42.520;27.448;2023-12-04T09:18:00;102066.75;;;8.14;100.00
8575;BME280;4325;42.520;27.448;2023-12-04T09:20:27;102065.88;;;8.20;100.00
8575;BME280;4325;42.520;27.448;2023-12-04T09:22:54;102070.25;;;8.27;100.00
8575;BME280;4325;42.520;27.448;2023-12-04T09:25:21;102067.00;;;8.37;100.00
8575;BME280;4325;42.520;27.448;2023-12-04T09:27:48;102069.41;;;8.45;100.00
8575;BME280;4325;42.520;27.448;2023-12-04T09:30:15;102062.47;;;8.49;100.00
8575;BME280;4325;42.520;27.448;2023-12-04T09:32:44;102055.94;;;8.50;100.00
8575;BME280;4325;42.520;27.448;2023-12-04T09:35:11;102052.06;;;8.57;100.00
8575;BME280;4325;42.520;27.448;2023-12-04T09:37:38;102055.97;;;8.68;99.03
8575;BME280;4325;42.520;27.448;2023-12-04T09:40:06;102039.72;;;8.73;95.29
8575;BME280;4325;42.520;27.448;2023-12-04T09:42:34;102041.38;;;8.74;94.48
8575;BME280;4325;42.520;27.448;2023-12-04T09:45:01;102046.47;;;8.71;92.04
8575;BME280;4325;42.520;27.448;2023-12-04T09:47:29;102056.56;;;8.70;93.70
8575;BME280;4325;42.520;27.448;2023-12-04T09:49:58;102050.66;;;8.73;92.47
8575;BME280;4325;42.520;27.448;2023-12-04T09:52:26;102041.38;;;8.74;92.65
8575;BME280;4325;42.520;27.448;2023-12-04T09:54:54;102037.00;;;8.73;91.35
8575;BME280;4325;42.520;27.448;2023-12-04T09:57:22;102042.31;;;8.68;88.87
8575;BME280;4325;42.520;27.448;2023-12-04T09:59:51;102044.81;;;8.70;92.33
8575;BME280;4325;42.520;27.448;2023-12-04T10:02:18;102050.16;;;8.76;96.22
8575;BME280;4325;42.520;27.448;2023-12-04T10:04:45;102056.88;;;8.80;92.98
8575;BME280;4325;42.520;27.448;2023-12-04T10:07:14;102051.78;;;8.84;87.63
8575;BME280;4325;42.520;27.448;2023-12-04T10:09:41;102049.78;;;8.91;88.11
8575;BME280;4325;42.520;27.448;2023-12-04T10:12:09;102054.75;;;9.00;85.32
8575;BME280;4325;42.520;27.448;2023-12-04T10:14:36;102053.97;;;9.11;82.35
8575;BME280;4325;42.520;27.448;2023-12-04T10:17:14;102047.69;;;9.22;79.94
8575;BME280;4325;42.520;27.448;2023-12-04T10:19:41;102049.47;;;9.47;80.96
8575;BME280;4325;42.520;27.448;2023-12-04T10:22:08;102051.59;;;9.86;81.37
8575;BME280;4325;42.520;27.448;2023-12-04T10:24:38;102049.91;;;10.38;78.34
8575;BME280;4325;42.520;27.448;2023-12-04T10:27:06;102041.69;;;10.49;74.17
8575;BME280;4325;42.520;27.448;2023-12-04T10:29:42;102044.16;;;10.74;72.42
8575;BME280;4325;42.520;27.448;2023-12-04T10:32:09;102045.69;;;10.82;70.46
8575;BME280;4325;42.520;27.448;2023-12-04T10:34:37;102041.88;;;10.83;69.62
8575;BME280;4325;42.520;27.448;2023-12-04T10:37:05;102041.66;;;10.73;68.98
8575;BME280;4325;42.520;27.448;2023-12-04T10:39:35;102044.38;;;10.61;67.88
8575;BME280;4325;42.520;27.448;2023-12-04T10:42:24;102051.31;;;10.52;69.55
8575;BME280;4325;42.520;27.448;2023-12-04T10:44:54;102048.47;;;10.58;68.41
8575;BME280;4325;42.520;27.448;2023-12-04T10:47:21;102050.72;;;10.61;66.74
8575;BME280;4325;42.520;27.448;2023-12-04T10:49:49;102052.88;;;10.59;67.35
8575;BME280;4325;42.520;27.448;2023-12-04T10:52:17;102056.88;;;10.69;64.56
8575;BME280;4325;42.520;27.448;2023-12-04T10:54:45;102063.06;;;10.87;63.30
8575;BME280;4325;42.520;27.448;2023-12-04T10:57:26;102058.41;;;10.99;63.03
8575;BME280;4325;42.520;27.448;2023-12-04T10:59:56;102059.31;;;11.05;69.94
8575;BME280;4325;42.520;27.448;2023-12-04T11:02:26;102052.34;;;11.25;76.96
8575;BME280;4325;42.520;27.448;2023-12-04T11:04:58;102056.31;;;11.74;73.28
8575;BME280;4325;42.520;27.448;2023-12-04T11:07:30;102046.84;;;12.32;69.22
8575;BME280;4325;42.520;27.448;2023-12-04T11:10:02;102049.22;;;12.83;61.50
8575;BME280;4325;42.520;27.448;2023-12-04T11:12:31;102049.47;;;13.20;57.75
8575;BME280;4325;42.520;27.448;2023-12-04T11:15:02;102048.28;;;13.38;57.86
8575;BME280;4325;42.520;27.448;2023-12-04T11:17:34;102051.03;;;13.38;58.65
8575;BME280;4325;42.520;27.448;2023-12-04T11:20:07;102060.34;;;13.10;57.55
8575;BME280;4325;42.520;27.448;2023-12-04T11:22:38;102058.88;;;12.86;57.33
8575;BME280;4325;42.520;27.448;2023-12-04T11:25:06;102054.78;;;12.67;58.55
8575;BME280;4325;42.520;27.448;2023-12-04T11:27:35;102055.00;;;12.43;60.33
8575;BME280;4325;42.520;27.448;2023-12-04T11:30:03;102057.34;;;12.35;60.94
8575;BME280;4325;42.520;27.448;2023-12-04T11:32:31;102051.19;;;12.28;58.95
8575;BME280;4325;42.520;27.448;2023-12-04T11:34:59;102057.00;;;12.15;59.52
8575;BME280;4325;42.520;27.448;2023-12-04T11:37:28;102051.94;;;12.07;62.26
8575;BME280;4325;42.520;27.448;2023-12-04T11:39:55;102055.09;;;11.99;61.87
8575;BME280;4325;42.520;27.448;2023-12-04T11:42:24;102057.19;;;11.91;60.52
8575;BME280;4325;42.520;27.448;2023-12-04T11:44:57;102058.06;;;11.80;61.95
8575;BME280;4325;42.520;27.448;2023-12-04T11:47:24;102064.31;;;11.76;61.94
8575;BME280;4325;42.520;27.448;2023-12-04T11:49:51;102050.44;;;11.54;61.49
8575;BME280;4325;42.520;27.448;2023-12-04T11:52:32;102050.75;;;11.41;63.46
8575;BME280;4325;42.520;27.448;2023-12-04T11:55:01;102047.56;;;11.33;62.27
8575;BME280;4325;42.520;27.448;2023-12-04T11:57:32;102045.66;;;11.33;62.75
8575;BME280;4325;42.520;27.448;2023-12-04T12:00:13;102046.81;;;11.37;65.59
8575;BME280;4325;42.520;27.448;2023-12-04T12:02:47;102050.22;;;11.44;64.47
8575;BME280;4325;42.520;27.448;2023-12-04T12:05:15;102044.44;;;11.41;62.78
8575;BME280;4325;42.520;27.448;2023-12-04T12:07:43;102047.38;;;11.39;62.28
8575;BME280;4325;42.520;27.448;2023-12-04T12:10:11;102050.28;;;11.33;64.65
8575;BME280;4325;42.520;27.448;2023-12-04T12:12:39;102046.50;;;11.22;65.83
8575;BME280;4325;42.520;27.448;2023-12-04T12:15:09;102056.47;;;11.11;64.60
8575;BME280;4325;42.520;27.448;2023-12-04T12:17:39;102040.91;;;10.89;64.95
8575;BME280;4325;42.520;27.448;2023-12-04T12:20:07;102050.47;;;10.75;66.85
8575;BME280;4325;42.520;27.448;2023-12-04T12:22:36;102048.81;;;10.62;65.25
8575;BME280;4325;42.520;27.448;2023-12-04T12:25:04;102042.25;;;10.51;67.69
8575;BME280;4325;42.520;27.448;2023-12-04T12:27:32;102044.19;;;10.51;68.85
8575;BME280;4325;42.520;27.448;2023-12-04T12:29:59;102049.44;;;10.41;66.82
8575;BME280;4325;42.520;27.448;2023-12-04T12:32:26;102052.88;;;10.36;70.24
8575;BME280;4325;42.520;27.448;2023-12-04T12:34:55;102054.78;;;10.36;72.61
8575;BME280;4325;42.520;27.448;2023-12-04T12:37:22;102057.88;;;10.39;68.76
8575;BME280;4325;42.520;27.448;2023-12-04T12:39:49;102060.38;;;10.41;68.53
8575;BME280;4325;42.520;27.448;2023-12-04T12:42:21;102060.38;;;10.41;70.74
8575;BME280;4325;42.520;27.448;2023-12-04T12:44:48;102070.88;;;10.44;70.04
8575;BME280;4325;42.520;27.448;2023-12-04T12:47:15;102064.16;;;10.51;70.92
8575;BME280;4325;42.520;27.448;2023-12-04T12:49:43;102071.06;;;10.54;71.37
8575;BME280;4325;42.520;27.448;2023-12-04T12:52:11;102070.59;;;10.57;71.57
8575;BME280;4325;42.520;27.448;2023-12-04T12:54:39;102067.41;;;10.48;68.70
8575;BME280;4325;42.520;27.448;2023-12-04T12:57:07;102063.22;;;10.34;68.74
8575;BME280;4325;42.520;27.448;2023-12-04T12:59:33;102064.78;;;10.30;69.48
8575;BME280;4325;42.520;27.448;2023-12-04T13:02:01;102071.09;;;10.31;70.73
8575;BME280;4325;42.520;27.448;2023-12-04T13:04:34;102070.25;;;10.30;70.30